Time;durP1;ratioP1;P1;durP2;ratioP2;P2;SDS_P1;SDS_P2;PMS_P1;PMS_P2;Temp;Humidity;BMP_temperature;BMP_pressure;BME280_temperature;BME280_humidity;BME280_pressure;Samples;Min_cycle;Max_cycle;Signal;HPM_P1;HPM_P2
2021/03/28 00:00:19;;;;;;;10.75;3.22;;;8.90;92.50;;;;;;5002397;28;20034;-83
2021/03/28 00:02:51;;;;;;;8.27;3.00;;;9.30;94.30;;;;;;5022207;28;20052;-82
2021/03/28 00:05:23;;;;;;;10.80;3.40;;;8.80;93.40;;;;;;5025616;28;20031;-82
2021/03/28 00:07:53;;;;;;;13.60;3.78;;;8.90;92.70;;;;;;5024159;28;20033;-82
2021/03/28 00:10:42;;;;;;;9.27;3.72;;;8.90;92.60;;;;;;5035567;28;20416;-81
2021/03/28 00:13:11;;;;;;;9.30;3.28;;;8.90;92.60;;;;;;5024670;28;20042;-80
2021/03/28 00:15:44;;;;;;;9.90;3.63;;;9.10;92.60;;;;;;5028996;28;20030;-81
2021/03/28 00:18:16;;;;;;;11.98;3.72;;;8.80;92.60;;;;;;5027201;28;20048;-82
2021/03/28 00:20:42;;;;;;;8.88;3.25;;;;;;;;;;5031006;28;20115;-82
2021/03/28 00:23:24;;;;;;;10.02;3.50;;;8.70;92.90;;;;;;5030020;28;20128;-80
2021/03/28 00:26:03;;;;;;;12.38;3.53;;;9.00;92.80;;;;;;5029219;28;20048;-82
2021/03/28 00:28:45;;;;;;;11.60;3.33;;;8.90;92.50;;;;;;5023986;28;20043;-81
2021/03/28 00:31:16;;;;;;;9.73;3.00;;;8.90;92.40;;;;;;5024694;28;20033;-82
2021/03/28 00:33:44;;;;;;;8.77;2.83;;;;;;;;;;5026550;28;20068;-82
2021/03/28 00:36:15;;;;;;;22.00;7.78;;;8.90;92.50;;;;;;5008894;28;20088;-83
2021/03/28 00:38:41;;;;;;;16.35;5.25;;;8.90;93.70;;;;;;5033187;28;20036;-85
2021/03/28 00:41:10;;;;;;;11.27;3.72;;;;;;;;;;5032062;28;20045;-81
2021/03/28 00:43:51;;;;;;;9.93;3.53;;;9.00;93.00;;;;;;5028199;28;20029;-82
2021/03/28 00:46:29;;;;;;;9.95;2.85;;;8.90;92.50;;;;;;5036489;28;20059;-82
2021/03/28 00:48:55;;;;;;;10.85;3.53;;;9.10;92.50;;;;;;5031811;28;20490;-83
2021/03/28 00:51:24;;;;;;;9.30;3.38;;;8.90;92.60;;;;;;5034897;28;20030;-81
2021/03/28 00:54:10;;;;;;;10.27;3.33;;;9.00;93.10;;;;;;5032354;28;20079;-84
2021/03/28 00:56:49;;;;;;;11.77;3.15;;;8.80;92.50;;;;;;5034778;28;20038;-80
2021/03/28 00:59:26;;;;;;;10.45;3.50;;;8.80;92.40;;;;;;5028576;28;20056;-81
2021/03/28 01:02:10;;;;;;;10.05;3.17;;;8.70;93.50;;;;;;5028952;28;20459;-83
2021/03/28 01:05:01;;;;;;;11.77;3.17;;;8.70;94.00;;;;;;5026138;28;20033;-83
2021/03/28 01:07:32;;;;;;;10.25;3.75;;;8.80;93.20;;;;;;5029802;28;20203;-79
2021/03/28 01:10:01;;;;;;;15.73;4.13;;;8.80;93.80;;;;;;5033134;28;20031;-83
2021/03/28 01:12:42;;;;;;;13.25;3.35;;;8.80;93.00;;;;;;5028032;28;20037;-80
2021/03/28 01:15:26;;;;;;;;;;;8.90;92.80;;;;;;5037314;28;20049;-85
2021/03/28 01:18:32;;;;;;;10.70;3.95;;;11.60;92.90;;;;;;5030150;28;19909;-81
2021/03/28 01:21:08;;;;;;;11.15;3.28;;;8.80;92.20;;;;;;5039563;28;20033;-80
2021/03/28 01:23:41;;;;;;;10.77;3.28;;;8.80;92.20;;;;;;5039259;28;20022;-87
2021/03/28 01:26:17;;;;;;;8.32;3.00;;;9.20;92.70;;;;;;5028076;28;20094;-83
2021/03/28 01:28:48;;;;;;;11.88;3.60;;;8.80;92.20;;;;;;5032049;28;20029;-80
2021/03/28 01:31:17;;;;;;;7.82;3.10;;;;;;;;;;5027783;28;20064;-80
2021/03/28 01:33:49;;;;;;;11.60;3.53;;;8.70;92.10;;;;;;5049991;28;20493;-82
2021/03/28 01:36:32;;;;;;;10.23;2.80;;;8.80;92.30;;;;;;5029508;28;20030;-81
2021/03/28 01:39:17;;;;;;;8.77;3.60;;;8.80;92.20;;;;;;5047073;28;20029;-82
2021/03/28 01:41:59;;;;;;;10.02;3.22;;;8.70;92.20;;;;;;5039359;28;20041;-81
2021/03/28 01:44:47;;;;;;;7.35;2.90;;;8.80;92.10;;;;;;5023761;28;20515;-85
2021/03/28 01:47:25;;;;;;;10.30;2.95;;;8.60;92.10;;;;;;5032442;28;20464;-80
2021/03/28 01:50:16;;;;;;;8.10;2.63;;;8.70;92.10;;;;;;5026923;28;20090;-81
2021/03/28 01:52:53;;;;;;;7.70;3.00;;;8.70;92.10;;;;;;5032717;28;20029;-81
2021/03/28 01:55:35;;;;;;;12.93;3.33;;;8.50;92.40;;;;;;5029729;28;20029;-81
2021/03/28 01:58:14;;;;;;;8.27;2.75;;;8.70;92.40;;;;;;5041766;28;20037;-82
2021/03/28 02:01:18;;;;;;;7.55;3.08;;;8.60;92.40;;;;;;5025385;28;20530;-79
2021/03/28 02:04:34;;;;;;;10.25;3.15;;;8.80;92.40;;;;;;5025153;28;20193;-80
2021/03/28 02:07:11;;;;;;;12.20;2.95;;;8.50;92.50;;;;;;5006809;28;20048;-83
2021/03/28 02:10:03;;;;;;;12.05;3.47;;;8.50;92.70;;;;;;5041464;28;20049;-80
2021/03/28 02:12:38;;;;;;;10.05;3.00;;;8.50;92.80;;;;;;5020351;28;20515;-82
2021/03/28 02:15:31;;;;;;;12.02;3.08;;;8.50;92.90;;;;;;5033660;28;20030;-82
2021/03/28 02:18:28;;;;;;;8.63;3.08;;;8.50;92.90;;;;;;5025625;28;20033;-81
2021/03/28 02:21:07;;;;;;;8.82;2.85;;;8.60;93.60;;;;;;5046540;28;20044;-80
2021/03/28 02:23:48;;;;;;;8.85;2.97;;;8.50;93.20;;;;;;5029903;28;20028;-80
2021/03/28 02:26:21;;;;;;;;;;;10.00;93.80;;;;;;5031381;28;20070;-80
2021/03/28 02:29:06;;;;;;;11.98;3.60;;;8.30;94.20;;;;;;5032879;28;20502;-82
2021/03/28 02:32:22;;;;;;;9.73;2.95;;;8.30;94.20;;;;;;5028558;28;20041;-81
2021/03/28 02:34:56;;;;;;;11.07;3.00;;;;;;;;;;5008460;28;20120;-80
2021/03/28 02:37:45;;;;;;;12.80;3.28;;;8.20;94.70;;;;;;5025912;28;20034;-83
2021/03/28 02:40:11;;;;;;;13.15;3.17;;;;;;;;;;5034570;28;20045;-80
2021/03/28 02:43:32;;;;;;;12.80;3.22;;;8.20;94.90;;;;;;5027898;28;20044;-81
2021/03/28 02:46:24;;;;;;;10.82;2.88;;;8.20;95.10;;;;;;4968872;28;20843;-80
2021/03/28 02:49:12;;;;;;;9.20;3.30;;;8.20;94.70;;;;;;5025537;28;20042;-83
2021/03/28 02:51:59;;;;;;;12.88;3.33;;;8.00;96.70;;;;;;5041334;28;20026;-80
2021/03/28 02:55:15;;;;;;;15.82;3.35;;;8.10;95.00;;;;;;5027319;28;20037;-84
2021/03/28 02:58:01;;;;;;;8.75;3.28;;;8.00;95.50;;;;;;5009771;28;20120;-83
2021/03/28 03:00:57;;;;;;;15.05;3.15;;;7.90;96.60;;;;;;5025147;28;20052;-80
2021/03/28 03:03:37;;;;;;;13.32;3.10;;;8.00;96.80;;;;;;5027098;28;20500;-81
2021/03/28 03:06:16;;;;;;;10.80;3.15;;;8.00;95.60;;;;;;5022756;28;20097;-78
2021/03/28 03:08:52;;;;;;;8.35;2.97;;;9.70;96.10;;;;;;5027961;28;20026;-82
2021/03/28 03:11:41;;;;;;;10.15;3.40;;;7.90;95.70;;;;;;5045768;28;20448;-81
2021/03/28 03:14:34;;;;;;;9.18;3.40;;;7.90;95.70;;;;;;5046522;28;20037;-83
2021/03/28 03:17:06;;;;;;;9.57;3.42;;;7.80;95.70;;;;;;5027041;28;20032;-80
2021/03/28 03:20:19;;;;;;;10.07;2.80;;;7.80;95.80;;;;;;5034442;28;20115;-80
2021/03/28 03:23:00;;;;;;;16.63;3.50;;;7.70;95.90;;;;;;5028832;28;20049;-80
2021/03/28 03:26:16;;;;;;;11.70;3.22;;;7.70;96.20;;;;;;5024465;28;20061;-80
2021/03/28 03:28:48;;;;;;;11.38;3.08;;;7.60;96.40;;;;;;5021189;28;20579;-80
2021/03/28 03:31:44;;;;;;;11.52;3.10;;;7.50;98.00;;;;;;5024766;28;20073;-82
2021/03/28 03:34:23;;;;;;;8.20;2.70;;;7.50;96.50;;;;;;5032029;28;20061;-81
2021/03/28 03:36:58;;;;;;;11.35;3.45;;;;;;;;;;5027041;28;20040;-82
2021/03/28 03:39:27;;;;;;;11.05;3.30;;;;;;;;;;5040378;28;20502;-80
2021/03/28 03:42:22;;;;;;;14.43;3.60;;;7.40;97.70;;;;;;5031876;28;20128;-82
2021/03/28 03:44:57;;;;;;;10.88;3.22;;;7.30;96.50;;;;;;5026680;28;20885;-81
2021/03/28 03:47:31;;;;;;;8.93;3.08;;;7.50;96.90;;;;;;5024689;28;20052;-83
2021/03/28 03:49:57;;;;;;;11.75;3.83;;;;;;;;;;5025762;28;20109;-79
2021/03/28 03:53:11;;;;;;;12.63;3.25;;;7.30;96.80;;;;;;5024152;28;20504;-82
2021/03/28 03:56:02;;;;;;;10.52;3.10;;;6.90;97.50;;;;;;5007152;28;20056;-81
2021/03/28 03:58:36;;;;;;;8.95;3.58;;;7.30;97.20;;;;;;5027782;28;20041;-80
2021/03/28 04:01:19;;;;;;;10.73;3.72;;;6.90;97.20;;;;;;5026852;28;20061;-80
2021/03/28 04:04:25;;;;;;;10.07;3.65;;;7.00;97.40;;;;;;5020644;28;20030;-78
2021/03/28 04:07:26;;;;;;;15.40;5.30;;;7.00;97.60;;;;;;4988456;28;20042;-82
2021/03/28 04:09:52;;;;;;;;;;;7.00;97.70;;;;;;5023803;28;20022;-82
2021/03/28 04:12:20;;;;;;;12.93;3.53;;;6.90;97.80;;;;;;5028298;28;19909;-80
2021/03/28 04:15:04;;;;;;;8.93;3.58;;;6.80;97.90;;;;;;5027803;28;20022;-82
2021/03/28 04:17:38;;;;;;;10.40;3.72;;;6.80;97.70;;;;;;5045723;28;20424;-82
2021/03/28 04:20:37;;;;;;;8.55;3.25;;;6.80;97.70;;;;;;5043270;28;20543;-83
2021/03/28 04:23:41;;;;;;;10.23;3.55;;;9.40;98.40;;;;;;5008664;28;20075;-83
2021/03/28 04:26:26;;;;;;;16.48;3.83;;;6.80;97.90;;;;;;5039895;28;20025;-81
2021/03/28 04:29:05;;;;;;;14.10;3.60;;;6.60;98.00;;;;;;5036711;28;20499;-83
2021/03/28 04:32:15;;;;;;;13.27;4.03;;;6.60;97.80;;;;;;5030639;28;20033;-80
2021/03/28 04:35:05;;;;;;;11.77;3.57;;;6.50;98.00;;;;;;5028579;28;20030;-82
2021/03/28 04:38:01;;;;;;;9.40;3.30;;;6.50;97.90;;;;;;5027913;28;20026;-83
2021/03/28 04:40:46;;;;;;;10.57;3.17;;;6.60;99.30;;;;;;5039360;28;20032;-81
2021/03/28 04:43:23;;;;;;;12.13;3.20;;;6.50;99.90;;;;;;5045064;28;20052;-83
2021/03/28 04:46:14;;;;;;;13.43;3.55;;;6.40;98.70;;;;;;5032243;28;20026;-80
2021/03/28 04:49:01;;;;;;;13.50;3.30;;;6.00;99.90;;;;;;5030021;28;20017;-81
2021/03/28 04:51:32;;;;;;;9.98;3.50;;;6.20;98.70;;;;;;5033224;28;20322;-81
2021/03/28 04:54:18;;;;;;;13.98;3.60;;;6.10;99.90;;;;;;5034132;28;20025;-80
2021/03/28 04:57:13;;;;;;;14.18;3.38;;;6.20;99.90;;;;;;5029353;28;20387;-81
2021/03/28 04:59:56;;;;;;;8.90;3.08;;;6.10;98.50;;;;;;5027739;28;20029;-82
2021/03/28 05:02:21;;;;;;;10.60;3.38;;;;;;;;;;5029588;28;20067;-84
2021/03/28 05:05:08;;;;;;;10.90;2.92;;;6.10;98.60;;;;;;5031463;28;20068;-82
2021/03/28 05:08:12;;;;;;;11.70;3.28;;;6.10;98.40;;;;;;5041071;28;20030;-80
2021/03/28 05:11:13;;;;;;;13.65;4.35;;;6.10;98.60;;;;;;5042726;28;20371;-83
2021/03/28 05:14:19;;;;;;;13.20;4.38;;;6.10;98.80;;;;;;5031442;28;20025;-81
2021/03/28 05:17:22;;;;;;;10.02;3.40;;;6.10;99.90;;;;;;5031291;28;20029;-82
2021/03/28 05:20:21;;;;;;;13.50;3.55;;;6.00;98.60;;;;;;5042976;28;20105;-79
2021/03/28 05:23:34;;;;;;;9.70;3.22;;;6.00;98.80;;;;;;5030809;28;20042;-80
2021/03/28 05:26:20;;;;;;;12.10;3.10;;;6.00;99.00;;;;;;5010611;28;20053;-83
2021/03/28 05:29:12;;;;;;;10.20;3.38;;;6.00;98.60;;;;;;5006603;28;20046;-80
2021/03/28 05:31:38;;;;;;;8.88;2.75;;;;;;;;;;5022461;28;20042;-80
2021/03/28 05:34:29;;;;;;;10.40;3.28;;;6.00;98.40;;;;;;5041494;28;20262;-81
2021/03/28 05:37:00;;;;;;;9.93;3.00;;;6.00;98.00;;;;;;5032035;28;20029;-82
2021/03/28 05:40:14;;;;;;;9.63;2.58;;;6.20;99.90;;;;;;5029826;28;20034;-80
2021/03/28 05:42:48;;;;;;;10.88;3.03;;;6.10;98.00;;;;;;5024527;28;20042;-80
2021/03/28 05:45:45;;;;;;;12.73;3.25;;;6.10;98.00;;;;;;5036674;28;20029;-84
2021/03/28 05:48:11;;;;;;;13.45;3.40;;;;;;;;;;5034095;28;20033;-81
2021/03/28 05:50:56;;;;;;;10.02;3.15;;;6.10;97.70;;;;;;5034240;28;20038;-79
2021/03/28 05:53:53;;;;;;;11.02;3.88;;;6.00;97.90;;;;;;5028891;28;20371;-80
2021/03/28 05:56:56;;;;;;;11.93;2.90;;;6.10;97.80;;;;;;5044374;28;20025;-81
2021/03/28 05:59:44;;;;;;;8.88;2.97;;;6.00;97.70;;;;;;5031210;28;20038;-81
2021/03/28 06:02:29;;;;;;;9.05;2.60;;;6.10;98.00;;;;;;5034754;28;20036;-81
2021/03/28 06:05:29;;;;;;;10.40;3.17;;;6.30;97.20;;;;;;5032088;28;20021;-80
2021/03/28 06:08:13;;;;;;;9.93;2.92;;;6.20;97.40;;;;;;5033907;28;20021;-79
2021/03/28 06:11:23;;;;;;;8.07;2.45;;;6.30;97.40;;;;;;5034598;28;20026;-85
2021/03/28 06:14:25;;;;;;;8.07;3.10;;;6.40;97.40;;;;;;5013083;28;20026;-82
2021/03/28 06:17:28;;;;;;;9.48;2.80;;;6.30;96.90;;;;;;5031123;28;21245;-79
2021/03/28 06:20:28;;;;;;;9.57;3.30;;;6.30;96.90;;;;;;5035270;28;20040;-84
2021/03/28 06:23:46;;;;;;;9.70;3.20;;;6.30;97.30;;;;;;5050188;28;20034;-84
2021/03/28 06:26:50;;;;;;;8.45;2.72;;;6.40;96.90;;;;;;5021071;28;20030;-82
2021/03/28 06:30:02;;;;;;;9.93;2.92;;;6.40;96.90;;;;;;5024839;28;20018;-82
2021/03/28 06:32:52;;;;;;;12.68;3.00;;;6.40;96.60;;;;;;5034135;28;20413;-83
2021/03/28 06:35:55;;;;;;;8.50;3.05;;;6.40;96.70;;;;;;5022888;28;20033;-83
2021/03/28 06:38:52;;;;;;;10.80;2.95;;;6.30;97.00;;;;;;5044136;28;20025;-81
2021/03/28 06:41:51;;;;;;;9.32;3.00;;;6.30;97.00;;;;;;5039076;28;20029;-84
2021/03/28 06:44:48;;;;;;;9.57;2.60;;;6.30;96.90;;;;;;5031821;28;20021;-83
2021/03/28 06:48:08;;;;;;;12.40;3.20;;;6.40;96.80;;;;;;5041946;28;20040;-85
2021/03/28 06:50:50;;;;;;;8.10;2.85;;;6.40;96.80;;;;;;4988093;28;20026;-81
2021/03/28 06:53:22;;;;;;;12.32;3.13;;;6.40;96.70;;;;;;5027546;28;20060;-82
2021/03/28 06:55:53;;;;;;;12.25;3.10;;;6.70;96.60;;;;;;5031846;28;20024;-80
2021/03/28 06:58:58;;;;;;;13.25;3.42;;;6.80;95.90;;;;;;5029898;28;20462;-81
2021/03/28 07:01:35;;;;;;;7.88;2.70;;;6.80;95.80;;;;;;5025246;28;20041;-84
2021/03/28 07:04:48;;;;;;;10.98;3.10;;;6.90;95.70;;;;;;5037051;28;20036;-83
2021/03/28 07:07:26;;;;;;;8.77;2.95;;;7.30;94.70;;;;;;5023520;28;20030;-81
2021/03/28 07:10:23;;;;;;;9.15;3.15;;;7.40;94.30;;;;;;5025505;28;20031;-81
2021/03/28 07:12:54;;;;;;;11.30;3.20;;;7.40;94.50;;;;;;5026620;28;20026;-88
2021/03/28 07:15:46;;;;;;;12.38;3.17;;;7.50;94.00;;;;;;5035700;28;20029;-86
2021/03/28 07:18:49;;;;;;;11.18;3.40;;;7.50;93.80;;;;;;5027622;28;20033;-82
2021/03/28 07:21:29;;;;;;;11.88;3.25;;;7.50;94.30;;;;;;5036146;28;20034;-86
2021/03/28 07:24:14;;;;;;;8.23;3.17;;;7.70;93.80;;;;;;5029139;28;20021;-81
2021/03/28 07:27:20;;;;;;;9.82;3.47;;;8.70;93.70;;;;;;5041189;28;20038;-79
2021/03/28 07:30:14;;;;;;;9.65;2.63;;;8.00;93.10;;;;;;5019919;28;20635;-83
2021/03/28 07:33:07;;;;;;;8.93;2.92;;;8.20;92.80;;;;;;5043813;28;20040;-83
2021/03/28 07:35:54;;;;;;;9.20;3.08;;;8.40;92.10;;;;;;5030577;28;20057;-81
2021/03/28 07:38:44;;;;;;;13.38;4.18;;;8.40;91.60;;;;;;5049171;28;20055;-83
2021/03/28 07:41:55;;;;;;;9.30;3.10;;;8.50;91.70;;;;;;5030643;28;20437;-82
2021/03/28 07:44:55;;;;;;;10.77;3.55;;;8.60;91.30;;;;;;5024656;28;20172;-81
2021/03/28 07:47:45;;;;;;;9.65;2.78;;;9.20;90.40;;;;;;5020001;28;20476;-83
2021/03/28 07:50:48;;;;;;;8.90;3.25;;;9.10;90.40;;;;;;5030776;28;20099;-83
2021/03/28 07:53:35;;;;;;;9.23;2.95;;;9.00;90.50;;;;;;5041968;28;20037;-85
2021/03/28 07:56:22;;;;;;;10.63;3.25;;;9.20;89.50;;;;;;5047544;28;20108;-84
2021/03/28 07:59:09;;;;;;;8.10;2.78;;;9.20;89.30;;;;;;5022798;28;20049;-84
2021/03/28 08:02:17;;;;;;;10.57;2.92;;;9.30;90.10;;;;;;5014018;28;20116;-86
2021/03/28 08:04:51;;;;;;;9.70;3.10;;;9.40;88.30;;;;;;5018756;28;20042;-83
2021/03/28 08:07:50;;;;;;;9.73;3.05;;;9.50;89.20;;;;;;5038612;28;21076;-81
2021/03/28 08:10:39;;;;;;;11.75;3.10;;;9.90;88.80;;;;;;5023181;28;20136;-82
2021/03/28 08:13:38;;;;;;;9.20;2.95;;;10.20;84.60;;;;;;5038404;28;20029;-82
2021/03/28 08:16:41;;;;;;;10.50;2.78;;;10.40;83.60;;;;;;5024220;28;20040;-83
2021/03/28 08:19:36;;;;;;;12.35;3.60;;;10.50;82.90;;;;;;5037143;28;20108;-82
2021/03/28 08:22:18;;;;;;;9.48;3.20;;;;;;;;;;5027055;28;20021;-85
2021/03/28 08:25:08;;;;;;;8.65;2.80;;;11.00;84.80;;;;;;5048622;28;20025;-83
2021/03/28 08:27:43;;;;;;;8.50;3.78;;;11.10;84.50;;;;;;5033078;28;20120;-83
2021/03/28 08:30:22;;;;;;;9.63;3.33;;;10.90;80.80;;;;;;5025072;28;20060;-84
2021/03/28 08:32:48;;;;;;;10.70;3.33;;;;;;;;;;5021615;28;20033;-84
2021/03/28 08:35:20;;;;;;;8.57;3.30;;;;;;;;;;5025693;28;20048;-82
2021/03/28 08:38:19;;;;;;;12.60;3.42;;;11.30;78.20;;;;;;5024955;28;20056;-80
2021/03/28 08:41:01;;;;;;;9.48;3.00;;;11.60;77.60;;;;;;5025120;28;20041;-85
2021/03/28 08:43:55;;;;;;;10.77;2.95;;;11.80;75.80;;;;;;5036726;28;20061;-84
2021/03/28 08:46:50;;;;;;;9.43;2.80;;;11.90;75.40;;;;;;5026775;28;20451;-83
2021/03/28 08:49:27;;;;;;;8.45;2.95;;;;;;;;;;5023501;28;20026;-85
2021/03/28 08:52:21;;;;;;;11.57;3.00;;;11.80;74.40;;;;;;5023558;28;20025;-84
2021/03/28 08:55:21;;;;;;;10.10;3.47;;;11.80;74.70;;;;;;5027620;28;20109;-83
2021/03/28 08:58:14;;;;;;;10.65;3.15;;;11.90;74.80;;;;;;5028660;28;20036;-82
2021/03/28 09:00:50;;;;;;;10.10;2.85;;;;;;;;;;5044746;28;20032;-82
2021/03/28 09:03:40;;;;;;;10.70;3.13;;;12.30;72.70;;;;;;5037886;28;20516;-81
2021/03/28 09:06:19;;;;;;;;;;;12.30;72.80;;;;;;5041538;28;20049;-83
2021/03/28 09:09:00;;;;;;;6.85;2.75;;;12.60;71.60;;;;;;5035591;28;19917;-84
2021/03/28 09:12:04;;;;;;;6.50;2.38;;;12.90;68.50;;;;;;5029360;28;20033;-81
2021/03/28 09:14:39;;;;;;;8.02;2.30;;;;;;;;;;4996488;28;20029;-86
2021/03/28 09:17:25;;;;;;;6.80;2.50;;;13.10;66.50;;;;;;5030923;28;20034;-83
2021/03/28 09:20:11;;;;;;;15.25;3.30;;;;;;;;;;5043988;28;20030;-85
2021/03/28 09:23:08;;;;;;;7.45;2.22;;;13.40;65.30;;;;;;5042691;28;20093;-81
2021/03/28 09:25:58;;;;;;;7.30;2.28;;;13.30;65.60;;;;;;5028269;28;20026;-86
2021/03/28 09:28:24;;;;;;;6.30;2.28;;;;;;;;;;5034930;28;20029;-84
2021/03/28 09:31:06;;;;;;;7.68;2.22;;;13.40;59.70;;;;;;5043787;28;20044;-84
2021/03/28 09:33:32;;;;;;;8.20;2.13;;;;;;;;;;5028219;28;20025;-82
2021/03/28 09:36:11;;;;;;;6.38;2.15;;;13.60;60.70;;;;;;5031880;28;20071;-86
2021/03/28 09:39:11;;;;;;;6.78;2.13;;;13.70;58.90;;;;;;5031871;28;20093;-82
2021/03/28 09:42:15;;;;;;;4.85;1.65;;;13.70;60.20;;;;;;5033737;28;20060;-83
2021/03/28 09:45:10;;;;;;;8.35;2.17;;;14.00;58.30;;;;;;5023054;28;20033;-85
2021/03/28 09:48:10;;;;;;;9.48;2.53;;;14.00;59.30;;;;;;5031279;28;20030;-83
2021/03/28 09:51:03;;;;;;;7.32;1.85;;;13.90;59.30;;;;;;5027966;28;20093;-85
2021/03/28 09:53:49;;;;;;;6.97;2.10;;;13.80;58.60;;;;;;5034874;28;20088;-84
2021/03/28 09:56:21;;;;;;;6.25;1.90;;;;;;;;;;5024179;28;20037;-83
2021/03/28 09:58:47;;;;;;;3.85;1.50;;;;;;;;;;5029649;28;20034;-85
2021/03/28 10:01:16;;;;;;;7.60;1.48;;;;;;;;;;5030835;28;20033;-86
2021/03/28 10:03:52;;;;;;;3.88;1.48;;;;;;;;;;5035822;28;20114;-84
2021/03/28 10:06:22;;;;;;;5.00;1.50;;;;;;;;;;5047073;28;20025;-85
2021/03/28 10:08:57;;;;;;;3.00;1.55;;;13.90;52.60;;;;;;5030373;28;20033;-85
2021/03/28 10:11:36;;;;;;;5.93;1.48;;;14.00;53.30;;;;;;5033358;28;20045;-84
2021/03/28 10:14:30;;;;;;;4.63;1.37;;;15.80;54.60;;;;;;5045079;28;20029;-85
2021/03/28 10:17:20;;;;;;;7.25;1.77;;;14.20;54.40;;;;;;5033508;28;20283;-84
2021/03/28 10:19:49;;;;;;;5.55;1.70;;;14.30;53.30;;;;;;5030074;28;20049;-82
2021/03/28 10:22:27;;;;;;;4.15;1.30;;;;;;;;;;5029620;28;20936;-86
2021/03/28 10:25:31;;;;;;;5.50;1.65;;;14.30;52.00;;;;;;5047217;28;20033;-83
2021/03/28 10:28:20;;;;;;;6.18;1.73;;;;;;;;;;5033454;28;20045;-84
2021/03/28 10:31:26;;;;;;;6.18;1.50;;;14.30;51.30;;;;;;5017064;28;20042;-83
2021/03/28 10:33:52;;;;;;;7.75;1.90;;;;;;;;;;5029873;28;20504;-83
2021/03/28 10:37:03;;;;;;;7.15;1.50;;;14.50;53.10;;;;;;5035972;28;20040;-85
2021/03/28 10:39:32;;;;;;;7.13;1.77;;;;;;;;;;5026079;28;20088;-83
2021/03/28 10:42:42;;;;;;;9.20;1.98;;;14.50;51.50;;;;;;5044750;28;20064;-85
2021/03/28 10:45:39;;;;;;;6.15;1.70;;;14.60;52.00;;;;;;5026445;28;20039;-84
2021/03/28 10:48:05;;;;;;;6.20;2.38;;;;;;;;;;5028884;28;20089;-88
2021/03/28 10:50:59;;;;;;;8.18;1.95;;;14.60;51.90;;;;;;5043555;28;20048;-85
2021/03/28 10:54:04;;;;;;;6.40;1.70;;;14.80;53.50;;;;;;5018420;28;20030;-83
2021/03/28 10:57:08;;;;;;;7.78;1.80;;;14.80;52.10;;;;;;5031700;28;20029;-86
2021/03/28 11:00:02;;;;;;;5.80;1.90;;;14.80;52.50;;;;;;5032867;28;20021;-84
2021/03/28 11:03:01;;;;;;;8.55;2.42;;;15.10;51.90;;;;;;5028884;28;20029;-83
2021/03/28 11:05:55;;;;;;;7.97;1.80;;;15.00;51.80;;;;;;5038885;28;20634;-83
2021/03/28 11:08:48;;;;;;;6.40;1.88;;;15.00;51.20;;;;;;5038144;28;20114;-86
2021/03/28 11:11:51;;;;;;;9.63;2.13;;;14.80;50.50;;;;;;5029432;28;20021;-84
2021/03/28 11:14:50;;;;;;;4.82;1.85;;;14.80;51.30;;;;;;5033094;28;20026;-83
2021/03/28 11:17:42;;;;;;;6.00;1.92;;;14.80;51.80;;;;;;5032867;28;20052;-86
2021/03/28 11:20:14;;;;;;;6.45;1.95;;;;;;;;;;5041606;28;20040;-83
2021/03/28 11:22:43;;;;;;;5.38;2.05;;;14.90;53.70;;;;;;5028490;28;20025;-83
2021/03/28 11:25:57;;;;;;;6.38;1.80;;;15.00;51.30;;;;;;5034520;28;20076;-88
2021/03/28 11:29:09;;;;;;;7.10;2.08;;;15.20;50.40;;;;;;5006299;28;20025;-85
2021/03/28 11:31:58;;;;;;;5.20;1.85;;;15.30;50.30;;;;;;5032488;28;20052;-82
2021/03/28 11:34:32;;;;;;;6.07;1.70;;;;;;;;;;5024233;28;20037;-81
2021/03/28 11:37:06;;;;;;;7.85;2.15;;;15.70;49.40;;;;;;5027337;28;20044;-82
2021/03/28 11:40:07;;;;;;;5.10;1.50;;;15.70;48.30;;;;;;5031656;28;20092;-83
2021/03/28 11:42:34;;;;;;;6.05;2.05;;;15.80;48.70;;;;;;5028014;28;20025;-82
2021/03/28 11:45:00;;;;;;;6.00;1.65;;;;;;;;;;5026317;28;20400;-87
2021/03/28 11:47:34;;;;;;;7.18;2.20;;;15.60;48.10;;;;;;5022263;28;20029;-83
2021/03/28 11:50:14;;;;;;;8.57;2.17;;;15.70;47.80;;;;;;5028233;28;20037;-86
2021/03/28 11:52:58;;;;;;;6.72;1.50;;;15.80;48.30;;;;;;5030834;28;20044;-86
2021/03/28 11:55:39;;;;;;;7.38;1.80;;;15.80;48.00;;;;;;5032826;28;20507;-85
2021/03/28 11:58:20;;;;;;;;;;;15.80;48.50;;;;;;5044032;28;20040;-81
2021/03/28 12:00:48;;;;;;;7.25;2.08;;;15.70;48.30;;;;;;5029145;28;19914;-85
2021/03/28 12:03:23;;;;;;;4.28;1.80;;;15.90;48.30;;;;;;5047871;28;20017;-85
2021/03/28 12:05:49;;;;;;;9.20;1.77;;;;;;;;;;5031588;28;20029;-84
2021/03/28 12:08:15;;;;;;;8.55;3.65;;;;;;;;;;5029874;28;20052;-85
2021/03/28 12:10:41;;;;;;;7.63;2.03;;;;;;;;;;5035537;28;20021;-84
2021/03/28 12:13:26;;;;;;;9.35;2.17;;;;;;;;;;5034308;28;20032;-85
2021/03/28 12:15:52;;;;;;;5.80;1.80;;;;;;;;;;5044700;28;20484;-85
2021/03/28 12:18:22;;;;;;;3.65;1.67;;;;;;;;;;5023550;28;20388;-83
2021/03/28 12:21:07;;;;;;;6.15;1.90;;;16.20;47.60;;;;;;5026070;28;20048;-82
2021/03/28 12:23:48;;;;;;;6.32;1.90;;;16.10;47.40;;;;;;5019467;28;20061;-80
2021/03/28 12:26:14;;;;;;;8.18;2.15;;;;;;;;;;5022768;28;20026;-82
2021/03/28 12:28:49;;;;;;;6.53;1.90;;;15.90;48.00;;;;;;5024159;28;20101;-84
2021/03/28 12:31:35;;;;;;;6.70;2.10;;;16.20;48.50;;;;;;5031324;28;20053;-80
2021/03/28 12:34:36;;;;;;;6.78;2.00;;;15.90;47.20;;;;;;5031118;28;20443;-80
2021/03/28 12:37:14;;;;;;;6.97;2.30;;;16.20;48.20;;;;;;5033318;28;20033;-83
2021/03/28 12:39:43;;;;;;;7.10;2.33;;;16.30;47.30;;;;;;5030161;28;20060;-82
2021/03/28 12:42:31;;;;;;;8.18;2.45;;;16.20;48.00;;;;;;5034011;28;20052;-81
2021/03/28 12:45:09;;;;;;;9.75;2.05;;;16.10;48.10;;;;;;5049397;28;20026;-80
2021/03/28 12:47:55;;;;;;;10.13;2.67;;;16.20;48.10;;;;;;5036535;28;20112;-82
2021/03/28 12:50:34;;;;;;;12.32;2.42;;;16.50;47.30;;;;;;5030747;28;20113;-81
2021/03/28 12:53:19;;;;;;;7.78;2.22;;;16.50;47.40;;;;;;5033849;28;20029;-83
2021/03/28 12:55:50;;;;;;;6.15;2.88;;;16.70;46.90;;;;;;5028316;28;20716;-83
2021/03/28 12:58:17;;;;;;;;;;;16.40;46.80;;;;;;5020536;28;20116;-84
2021/03/28 13:00:55;;;;;;;7.80;2.38;;;16.30;47.60;;;;;;5031215;28;19919;-82
2021/03/28 13:03:44;;;;;;;5.80;1.83;;;16.50;47.00;;;;;;5027834;28;20045;-82
2021/03/28 13:06:19;;;;;;;8.77;2.30;;;16.30;47.20;;;;;;5027399;28;20030;-84
2021/03/28 13:08:50;;;;;;;7.53;2.28;;;16.50;48.00;;;;;;5025494;28;20109;-80
2021/03/28 13:11:34;;;;;;;8.10;2.05;;;16.10;47.30;;;;;;5031735;28;20392;-84
2021/03/28 13:14:01;;;;;;;5.47;2.10;;;16.10;47.30;;;;;;5032797;28;20807;-82
2021/03/28 13:16:30;;;;;;;8.05;2.85;;;16.10;47.70;;;;;;5031322;28;20488;-83
2021/03/28 13:18:58;;;;;;;8.50;2.95;;;16.20;47.60;;;;;;5030817;28;20748;-84
2021/03/28 13:21:38;;;;;;;7.43;2.53;;;16.50;47.90;;;;;;5035421;28;20037;-80
2021/03/28 13:24:15;;;;;;;;;;;16.40;47.50;;;;;;5024327;28;20030;-77
2021/03/28 13:27:03;;;;;;;9.02;2.28;;;16.40;47.20;;;;;;5029818;28;20453;-80
2021/03/28 13:29:36;;;;;;;6.55;2.00;;;16.50;47.30;;;;;;5029253;28;20022;-80
2021/03/28 13:32:20;;;;;;;10.88;3.20;;;17.30;49.00;;;;;;5010195;28;20041;-77
2021/03/28 13:34:46;;;;;;;6.63;2.30;;;16.50;47.30;;;;;;5015162;28;20507;-78
2021/03/28 13:37:31;;;;;;;6.55;2.25;;;16.50;47.80;;;;;;5028876;28;20044;-78
2021/03/28 13:40:00;;;;;;;8.70;2.33;;;16.60;47.30;;;;;;5015741;28;20787;-78
2021/03/28 13:42:35;;;;;;;8.38;2.72;;;18.60;47.80;;;;;;5027040;28;20504;-79
2021/03/28 13:45:21;;;;;;;8.65;2.20;;;17.60;47.20;;;;;;5015833;28;20033;-78
2021/03/28 13:47:52;;;;;;;8.30;2.40;;;16.90;48.30;;;;;;5026055;28;20026;-78
2021/03/28 13:50:41;;;;;;;8.25;2.80;;;16.90;45.80;;;;;;5031289;28;20322;-78
2021/03/28 13:53:16;;;;;;;9.63;2.50;;;16.90;45.90;;;;;;5017440;28;20037;-77
2021/03/28 13:56:03;;;;;;;6.65;1.75;;;16.90;46.00;;;;;;5011490;28;20091;-77
2021/03/28 13:58:35;;;;;;;6.35;1.80;;;17.00;45.60;;;;;;5018307;28;20033;-79
2021/03/28 14:01:21;;;;;;;6.05;2.13;;;17.40;46.10;;;;;;5020081;28;20541;-78
2021/03/28 14:03:48;;;;;;;8.48;2.40;;;17.20;45.70;;;;;;5011770;28;20063;-79
2021/03/28 14:06:20;;;;;;;7.07;2.00;;;17.40;45.70;;;;;;5025705;28;20028;-77
2021/03/28 14:08:46;;;;;;;7.10;2.05;;;16.80;45.80;;;;;;5028022;28;20014;-78
2021/03/28 14:11:31;;;;;;;6.63;1.95;;;16.80;45.40;;;;;;5023313;28;20056;-78
2021/03/28 14:14:02;;;;;;;8.15;2.08;;;16.70;45.60;;;;;;5025001;28;20030;-77
2021/03/28 14:16:30;;;;;;;7.18;2.00;;;16.70;46.50;;;;;;5026854;28;20108;-78
2021/03/28 14:19:06;;;;;;;8.05;2.20;;;16.70;45.70;;;;;;5021369;28;20033;-78
2021/03/28 14:21:32;;;;;;;8.57;1.88;;;16.70;46.50;;;;;;5044369;28;20026;-78
2021/03/28 14:24:10;;;;;;;4.78;1.92;;;16.90;46.70;;;;;;5026606;28;20561;-78
2021/03/28 14:26:42;;;;;;;7.90;2.20;;;16.90;46.20;;;;;;5025526;28;20445;-78
2021/03/28 14:29:41;;;;;;;8.07;2.60;;;16.90;46.50;;;;;;5025205;28;20475;-76
2021/03/28 14:32:14;;;;;;;6.07;2.45;;;17.00;46.00;;;;;;5015541;28;20056;-78
2021/03/28 14:34:59;;;;;;;6.47;2.13;;;17.10;45.70;;;;;;5022432;28;20026;-79